Harrison Township, Michigan
Current Conditions -  °F | °C
As of 8:55 AM on Friday 19 Dec 2014 (Local Time) from KMTC Reporting Station
Overcast Overcast  
Wind Chill: 19°   Ceiling: 2200
Heat Index: 27°   Visibility: 10mi
Dew Point: 22°   Wind: 7mph
Humidity: 80%   Direction: 320°NW
Pressure: 30.25"   Gusts: NA
Location:  42.58°N, 82.83°W
Report Text: KMTC 191355Z 32006KT 10SM OVC022 M03/M06 A3025 RMK SLP259 T10281058
Loading
Personal Weather Stations






























Interactive Weather Map New forecast layout! Learn more

10-Day Weather Forecast

Advertisements
Track Severe Weather on mobile